ROYNROAH

Guest
Details From ROYN - Yonaguni
To ROAH - Naha
Flight Number -
Tags Generated
Created
Modified
Stats Distance 274 nm / 508 km
Max Altitude 0 ft / 0 m
Waypoints 3
Social Downloads 0
Likes 0
Share VATSIM

Download

Looking for another format? Having issues loading an existing format? Contact us
Advertisement - Login to hide

Notes

Generated

Route

ROYN NHC ROAH

ID Type Via Altitude (ft/m) Position (lat/lon) Dist (leg/tot) Name
O ROYN APT - 0 / 0 24.46522 / 122.97072 - / 0 nm
NHC VOR - 0 / 0 26.20853 / 127.64287 274 / 274 nm NAHA VORTAC
O ROAH APT - 0 / 0 26.20934 / 127.64523 0 / 274 nm

Altitude Profile

Advertisement - Login to hide

Weather


0- 5 10 15 20 25 30 35+ Temperature / °C

Clouds and Precipitation
Forecast for 2018-12-11 12:00 UTC. Updated 2 hours ago

Ground ~20,000 ft ~40,000 ft Winds

ROYN

Details ICAO ROYN (OGN)
Name YONAGUNI
Region Japan
Timezone Unknown
Stats Elevation 48 ft / 15 m (AMSL)
Location 24.467400° 122.980000°
Runways 1
Magnetic Variation 4.577° W

METAR

ROYN 111100Z AUTO 01030KT 5000 BR SCT017 BKN021 OVC023 21/18 Q1019

Decode

TAF

Not found

Departure Runways

ID Width Length Bearing (true/mag) Surface Threshold Overrun Markings Lighting
08 148 ft / 45 m 6,568 ft / 2,002 m 75.18° / 79.76° ASPHALT 0 ft / 0 m 167 ft / 51 m PREC-APP CENTERLINE EDGE THRESHOLD REIL-OMNI
26 148 ft / 45 m 6,568 ft / 2,002 m 255.19° / 259.76° ASPHALT 0 ft / 0 m 217 ft / 66 m PREC-APP CENTERLINE EDGE THRESHOLD REIL-OMNI

ROAH

Details ICAO ROAH (OKA)
Name Naha Airport
Region Japan
Timezone Asia/Tokyo (UTC+9.0)
Stats Elevation 12 ft / 4 m (AMSL)
Location 26.195800° 127.646000°
Runways 1
Magnetic Variation 5.318° W

METAR

ROAH 111130Z 18006KT 9999 -SHRA FEW010 BKN020 24/22 Q1015 RMK 1CU010 5CU020 A2998

Decode

TAF

TAF ROAH 110505Z 1106/1212 16012KT 9999 FEW010 BKN020 BECMG 1110/1112 36025KT TEMPO 1110/1113 4000 SHRA FEW008 BKN015 FEW020CB

Decode

Destination Runways

ID Width Length Bearing (true/mag) Surface Threshold Overrun Markings Lighting
18 148 ft / 45 m 9,852 ft / 3,003 m 177.59° / 182.91° CONCRETE 0 ft / 0 m 0 ft / 0 m PREC-APP CENTERLINE EDGE THRESHOLD SALS REIL-OMNI
36 148 ft / 45 m 9,852 ft / 3,003 m 357.59° / 2.91° CONCRETE 0 ft / 0 m 486 ft / 148 m PREC-APP CENTERLINE EDGE THRESHOLD ALSF-I TDZ REIL-OMNI

Approach Navaids

Runway Type Ident Frequency Range Bearing (true/mag) Slope Elevation
36 GS IOK 110.30 MHz 10 nm / 19 km 358.18° / 3.49 ° 2.75° 52 ft / 16 m (AMSL)
36 DME IOK 110.30 MHz 18 nm / 33 km - - 31 ft / 9 m (AMSL)
36 MM MM - - 357.59° / 2.91 ° - 12 ft / 4 m (AMSL)
36 LOC-ILS IOK 110.30 MHz 18 nm / 33 km 356.78° / 2.10 ° - 52 ft / 16 m (AMSL)